Time,TemperatureF,DewpointF,PressureIn,WindDirection,WindDirectionDegrees,WindSpeedMPH,WindSpeedGustMPH,Humidity,HourlyPrecipIn,Conditions,Clouds,dailyrainin,SoftwareType,DateUTC
2013-09-14 00:12:00,57.0,49.0,29.74,NE,53,0.0,0.0,74,0.00,,,0.00,,2013-09-14 07:12:00,
2013-09-14 00:21:00,56.0,49.0,29.74,NE,53,0.0,1.0,77,0.00,,,0.00,,2013-09-14 07:21:00,
2013-09-14 00:42:00,55.0,47.0,29.74,NE,53,0.0,1.0,73,0.00,,,0.00,,2013-09-14 07:42:00,
2013-09-14 00:52:00,54.0,48.0,29.74,NE,53,0.0,1.0,79,0.00,,,0.00,,2013-09-14 07:52:00,
2013-09-14 01:12:00,54.0,46.0,29.74,NE,53,0.0,1.0,75,0.00,,,0.00,,2013-09-14 08:12:00,
2013-09-14 01:21:00,54.0,47.0,29.74,NE,53,0.0,0.0,77,0.00,,,0.00,,2013-09-14 08:21:00,
2013-09-14 01:42:00,53.0,46.0,29.74,NE,53,0.0,0.0,78,0.00,,,0.00,,2013-09-14 08:42:00,
2013-09-14 01:52:00,52.0,46.0,29.74,NE,53,0.0,0.0,79,0.00,,,0.00,,2013-09-14 08:52:00,
2013-09-14 02:11:00,51.0,46.0,29.74,NE,53,0.0,0.0,82,0.00,,,0.00,,2013-09-14 09:11:00,
2013-09-14 02:21:00,50.0,46.0,29.74,NE,53,0.0,0.0,85,0.00,,,0.00,,2013-09-14 09:21:00,
2013-09-14 02:43:00,50.0,45.0,29.74,NE,53,0.0,1.0,84,0.00,,,0.00,,2013-09-14 09:43:00,
2013-09-14 02:53:00,49.0,44.0,29.74,NE,53,0.0,0.0,84,0.00,,,0.00,,2013-09-14 09:53:00,
2013-09-14 03:12:00,48.0,44.0,29.74,NE,53,0.0,0.0,86,0.00,,,0.00,,2013-09-14 10:12:00,
2013-09-14 03:23:00,48.0,44.0,29.75,NE,53,0.0,0.0,85,0.00,,,0.00,,2013-09-14 10:23:00,
2013-09-14 03:52:00,46.0,42.0,29.74,NE,53,0.0,0.0,85,0.00,,,0.00,,2013-09-14 10:52:00,
2013-09-14 04:12:00,46.0,42.0,29.75,NE,53,0.0,0.0,87,0.00,,,0.00,,2013-09-14 11:12:00,
2013-09-14 04:22:00,45.0,42.0,29.75,NE,53,0.0,1.0,88,0.00,,,0.00,,2013-09-14 11:22:00,
2013-09-14 04:42:00,45.0,41.0,29.75,NE,53,0.0,0.0,87,0.00,,,0.00,,2013-09-14 11:42:00,
2013-09-14 04:52:00,45.0,42.0,29.75,NE,53,0.0,0.0,88,0.00,,,0.00,,2013-09-14 11:52:00,
2013-09-14 05:12:00,44.0,41.0,29.75,NE,53,0.0,0.0,88,0.00,,,0.00,,2013-09-14 12:12:00,
2013-09-14 05:22:00,44.0,41.0,29.75,NE,53,0.0,0.0,89,0.00,,,0.00,,2013-09-14 12:22:00,
2013-09-14 05:52:00,44.0,41.0,29.75,NE,53,0.0,0.0,89,0.00,,,0.00,,2013-09-14 12:52:00,
2013-09-14 06:11:00,43.0,40.0,29.75,NE,53,0.0,0.0,90,0.00,,,0.00,,2013-09-14 13:11:00,
2013-09-14 06:21:00,43.0,40.0,29.75,NE,53,0.0,0.0,90,0.00,,,0.00,,2013-09-14 13:21:00,
2013-09-14 06:42:00,43.0,40.0,29.75,NE,53,0.0,0.0,90,0.00,,,0.00,,2013-09-14 13:42:00,
2013-09-14 06:52:00,43.0,40.0,29.76,NE,53,0.0,1.0,89,0.00,,,0.00,,2013-09-14 13:52:00,
2013-09-14 07:11:00,43.0,40.0,29.75,NE,53,0.0,1.0,88,0.00,,,0.00,,2013-09-14 14:11:00,
2013-09-14 07:22:00,43.0,40.0,29.76,NE,53,0.0,0.0,89,0.00,,,0.00,,2013-09-14 14:22:00,
2013-09-14 07:42:00,43.0,40.0,29.76,NE,53,0.0,1.0,90,0.00,,,0.00,,2013-09-14 14:42:00,
2013-09-14 07:52:00,44.0,40.0,29.77,NE,53,0.0,2.0,87,0.00,,,0.00,,2013-09-14 14:52:00,
2013-09-14 08:11:00,45.0,41.0,29.77,NE,46,1.0,3.0,85,0.00,,,0.00,,2013-09-14 15:11:00,
2013-09-14 08:22:00,46.0,41.0,29.78,SSW,203,0.0,2.0,83,0.00,,,0.00,,2013-09-14 15:22:00,
2013-09-14 08:43:00,47.0,41.0,29.78,SSW,203,0.0,2.0,81,0.00,,,0.00,,2013-09-14 15:43:00,
2013-09-14 08:53:00,50.0,44.0,29.77,SSW,203,0.0,1.0,79,0.00,,,0.00,,2013-09-14 15:53:00,
2013-09-14 09:13:00,52.0,44.0,29.77,SSW,203,0.0,1.0,75,0.00,,,0.00,,2013-09-14 16:13:00,
2013-09-14 09:23:00,55.0,46.0,29.77,SSW,200,1.0,4.0,72,0.00,,,0.00,,2013-09-14 16:23:00,
2013-09-14 09:54:00,60.0,49.0,29.76,South,182,2.0,5.0,66,0.00,,,0.00,,2013-09-14 16:54:00,
2013-09-14 10:11:00,62.0,50.0,29.75,SSE,158,1.0,5.0,65,0.00,,,0.00,,2013-09-14 17:11:00,
2013-09-14 10:23:00,63.0,51.0,29.75,SSE,159,2.0,6.0,64,0.00,,,0.00,,2013-09-14 17:23:00,
2013-09-14 10:43:00,65.0,52.0,29.75,SSE,159,2.0,5.0,62,0.00,,,0.00,,2013-09-14 17:43:00,
2013-09-14 10:53:00,67.0,51.0,29.74,SSE,159,1.0,3.0,56,0.00,,,0.00,,2013-09-14 17:53:00,
2013-09-14 11:11:00,70.0,49.0,29.73,SE,133,0.0,2.0,47,0.00,,,0.00,,2013-09-14 18:11:00,
2013-09-14 11:52:00,77.0,49.0,29.72,NE,36,3.0,7.0,37,0.00,,,0.00,,2013-09-14 18:52:00,
2013-09-14 12:11:00,79.0,47.0,29.72,ENE,76,2.0,5.0,33,0.00,,,0.00,,2013-09-14 19:11:00,
2013-09-14 12:22:00,81.0,47.0,29.71,NNE,30,3.0,8.0,31,0.00,,,0.00,,2013-09-14 19:22:00,
2013-09-14 12:42:00,81.0,47.0,29.70,NNE,22,5.0,8.0,30,0.00,,,0.00,,2013-09-14 19:42:00,
2013-09-14 12:52:00,81.0,47.0,29.70,NNE,19,1.0,5.0,30,0.00,,,0.00,,2013-09-14 19:52:00,
2013-09-14 13:12:00,82.0,47.0,29.70,NE,53,3.0,13.0,29,0.00,,,0.00,,2013-09-14 20:12:00,
2013-09-14 13:22:00,82.0,47.0,29.69,NE,34,4.0,8.0,29,0.00,,,0.00,,2013-09-14 20:22:00,
2013-09-14 13:42:00,84.0,46.0,29.68,NE,52,2.0,9.0,27,0.00,,,0.00,,2013-09-14 20:42:00,
2013-09-14 13:52:00,83.0,47.0,29.68,NNE,23,4.0,10.0,28,0.00,,,0.00,,2013-09-14 20:52:00,
2013-09-14 14:11:00,83.0,47.0,29.67,NW,323,2.0,9.0,28,0.00,,,0.00,,2013-09-14 21:11:00,
2013-09-14 14:22:00,84.0,46.0,29.67,NE,47,2.0,7.0,27,0.00,,,0.00,,2013-09-14 21:22:00,
2013-09-14 14:44:00,84.0,46.0,29.66,NNE,31,4.0,10.0,27,0.00,,,0.00,,2013-09-14 21:44:00,
2013-09-14 14:54:00,85.0,46.0,29.66,West,273,2.0,6.0,26,0.00,,,0.00,,2013-09-14 21:54:00,
2013-09-14 15:13:00,86.0,47.0,29.65,ENE,67,11.0,14.0,26,0.00,,,0.00,,2013-09-14 22:13:00,
2013-09-14 15:24:00,85.0,46.0,29.65,ENE,76,5.0,10.0,26,0.00,,,0.00,,2013-09-14 22:24:00,
2013-09-14 15:42:00,86.0,47.0,29.64,East,84,6.0,13.0,26,0.00,,,0.00,,2013-09-14 22:42:00,
2013-09-14 15:53:00,86.0,46.0,29.64,ENE,57,6.0,13.0,25,0.00,,,0.00,,2013-09-14 22:53:00,
2013-09-14 16:11:00,86.0,46.0,29.63,ENE,77,7.0,12.0,25,0.00,,,0.00,,2013-09-14 23:11:00,
2013-09-14 16:23:00,87.0,46.0,29.62,East,93,8.0,12.0,24,0.00,,,0.00,,2013-09-14 23:23:00,
2013-09-14 16:42:00,87.0,45.0,29.62,ENE,72,7.0,13.0,23,0.00,,,0.00,,2013-09-14 23:42:00,
2013-09-14 16:53:00,86.0,44.0,29.62,East,80,6.0,15.0,23,0.00,,,0.00,,2013-09-14 23:53:00,
2013-09-14 17:12:00,86.0,44.0,29.61,North,9,1.0,9.0,23,0.00,,,0.00,,2013-09-15 00:12:00,
2013-09-14 17:22:00,87.0,46.0,29.61,NE,40,0.0,8.0,24,0.00,,,0.00,,2013-09-15 00:22:00,
2013-09-14 17:42:00,86.0,45.0,29.61,NNE,28,4.0,12.0,24,0.00,,,0.00,,2013-09-15 00:42:00,
2013-09-14 17:53:00,86.0,45.0,29.60,NNE,15,2.0,5.0,24,0.00,,,0.00,,2013-09-15 00:53:00,
2013-09-14 18:11:00,85.0,45.0,29.61,ENE,57,14.0,19.0,25,0.00,,,0.00,,2013-09-15 01:11:00,
2013-09-14 18:22:00,84.0,45.0,29.61,NE,35,7.0,19.0,26,0.00,,,0.00,,2013-09-15 01:22:00,
2013-09-14 18:42:00,82.0,45.0,29.61,North,5,5.0,18.0,27,0.00,,,0.00,,2013-09-15 01:42:00,
2013-09-14 18:52:00,81.0,46.0,29.61,ENE,57,5.0,11.0,29,0.00,,,0.00,,2013-09-15 01:52:00,
2013-09-14 19:12:00,80.0,46.0,29.61,NE,46,3.0,8.0,30,0.00,,,0.00,,2013-09-15 02:12:00,
2013-09-14 19:22:00,80.0,46.0,29.61,NE,54,7.0,12.0,30,0.00,,,0.00,,2013-09-15 02:22:00,
2013-09-14 19:42:00,78.0,46.0,29.61,NE,37,4.0,11.0,32,0.00,,,0.00,,2013-09-15 02:42:00,
2013-09-14 19:52:00,76.0,46.0,29.62,NNE,27,1.0,6.0,34,0.00,,,0.00,,2013-09-15 02:52:00,
2013-09-14 20:11:00,76.0,46.0,29.62,NE,43,3.0,9.0,34,0.00,,,0.00,,2013-09-15 03:11:00,
2013-09-14 20:21:00,74.0,45.0,29.62,NE,46,2.0,7.0,36,0.00,,,0.00,,2013-09-15 03:21:00,
2013-09-14 20:44:00,73.0,45.0,29.63,NE,46,2.0,5.0,37,0.00,,,0.00,,2013-09-15 03:44:00,
2013-09-14 20:55:00,71.0,45.0,29.64,NE,43,2.0,6.0,39,0.00,,,0.00,,2013-09-15 03:55:00,
2013-09-14 21:02:00,-999.0,-99.9,29.64,NE,49,1.0,9.0,-999,-99.99,,,-99.99,,2013-09-15 04:02:00,
2013-09-14 21:13:00,71.0,45.0,29.64,NE,49,1.0,9.0,40,0.00,,,0.00,,2013-09-15 04:13:00,
2013-09-14 21:24:00,71.0,46.0,29.64,NE,53,3.0,8.0,41,0.00,,,0.00,,2013-09-15 04:24:00,
2013-09-14 21:43:00,70.0,46.0,29.63,ENE,62,3.0,8.0,43,0.00,,,0.00,,2013-09-15 04:43:00,
2013-09-14 21:54:00,70.0,48.0,29.64,ENE,60,7.0,10.0,45,0.00,,,0.00,,2013-09-15 04:54:00,
2013-09-14 22:13:00,70.0,48.0,29.64,NE,45,4.0,9.0,46,0.00,,,0.00,,2013-09-15 05:13:00,
2013-09-14 22:22:00,69.0,48.0,29.64,ENE,63,7.0,9.0,48,0.00,,,0.00,,2013-09-15 05:22:00,
2013-09-14 22:42:00,69.0,48.0,29.64,NE,39,2.0,8.0,48,0.00,,,0.00,,2013-09-15 05:42:00,
2013-09-14 22:52:00,68.0,49.0,29.64,ENE,57,0.0,4.0,50,0.00,,,0.00,,2013-09-15 05:52:00,
2013-09-14 23:12:00,67.0,49.0,29.64,ENE,57,1.0,3.0,53,0.00,,,0.00,,2013-09-15 06:12:00,
2013-09-14 23:21:00,67.0,50.0,29.64,ENE,63,4.0,7.0,54,0.00,,,0.00,,2013-09-15 06:21:00,
2013-09-14 23:42:00,67.0,49.0,29.64,NE,48,4.0,8.0,53,0.00,,,0.00,,2013-09-15 06:42:00,
2013-09-14 23:52:00,66.0,49.0,29.64,ENE,65,0.0,7.0,55,0.00,,,0.00,,2013-09-15 06:52:00,